BBC Switzerland — DGFL2 — position and weather

sailwx.info

Track history (hours):
 
Tides and Currents Weather Stations Pressure Air Temp Water Temp Dewpoint Dewpoint Depression Visibility Wind Speed Wind Dir Waves Ship Positions

BBC Switzerland

Last reported at 2018-Apr-08 03:32 UTC. Time now 2018-Apr-25 20:24 UTC.
Position S 33°00' W 071°45'.
Warning: this ship's position is 17 days out of date.

Length 119 m; draft 6.8 m.

Type: Cargo ship. MMSI: 218629000.

Date/timePositionNaut miles runAvg speedWind from/ knotsBaromVisibWave heightAir tempDewpointWater temp
2018-Apr-08 03:32S 33°00' W 071°45'013.2
2018-Apr-08 03:30S 33°00' W 071°45'713.0
2018-Apr-08 03:00S 32°57' W 071°38'5 9.7
2018-Apr-08 02:30S 33°01' W 071°36'1 2.2
2018-Apr-08 01:55S 33°02' W 071°38'0 0.0
2018-Apr-08 01:16S 33°02' W 071°38'0 0.0
2018-Apr-08 00:58S 33°02' W 071°38'0 0.0
2018-Apr-08 00:28S 33°02' W 071°38'0 0.0
2018-Apr-07 23:58S 33°02' W 071°38'0 0.0
2018-Apr-07 23:28S 33°02' W 071°38'0 0.0
2018-Apr-07 21:10S 33°02' W 071°38'0 0.0
2018-Apr-07 20:55S 33°02' W 071°38'0 0.0
2018-Apr-07 20:28S 33°02' W 071°38'0 0.0
2018-Apr-07 19:52S 33°02' W 071°38'0 0.0
2018-Apr-07 19:28S 33°02' W 071°38'0 0.0
2018-Apr-07 18:58S 33°02' W 071°38'0 0.0
2018-Apr-07 18:28S 33°02' W 071°38'0 0.0
2018-Apr-07 17:55S 33°02' W 071°38'0 0.0
2018-Apr-07 17:28S 33°02' W 071°38'0 0.0
2018-Apr-07 16:58S 33°02' W 071°38'0 0.0
2018-Apr-07 16:28S 33°02' W 071°38'0 0.0
2018-Apr-07 15:58S 33°02' W 071°38'0 0.0
2018-Apr-07 14:43S 33°02' W 071°38'6 1.0
2018-Apr-07 09:08S 32°57' W 071°38'1 8.6
2018-Apr-07 08:59S 32°55' W 071°39'4 8.7
2018-Apr-07 08:29S 32°51' W 071°40'5 9.9
2018-Apr-07 07:59S 32°46' W 071°41'  
Track history (hours):
 
Tides and Currents Weather Stations Pressure Air Temp Water Temp Dewpoint Dewpoint Depression Visibility Wind Speed Wind Dir Waves Ship Positions

BBC Switzerland

Last reported at 2018-Apr-08 03:32 UTC. Time now 2018-Apr-25 20:24 UTC.
Position S 33°00' W 071°45'.
Warning: this ship's position is 17 days out of date.

Length 119 m; draft 6.8 m.

Type: Cargo ship. MMSI: 218629000.

Date/timePositionNaut miles runAvg speedWind from/ knotsBaromVisibWave heightAir tempDewpointWater temp
2018-Apr-08 03:32S 33°00' W 071°45'013.2
2018-Apr-08 03:30S 33°00' W 071°45'713.0
2018-Apr-08 03:00S 32°57' W 071°38'5 9.7
2018-Apr-08 02:30S 33°01' W 071°36'1 2.2
2018-Apr-08 01:55S 33°02' W 071°38'0 0.0
2018-Apr-08 01:16S 33°02' W 071°38'0 0.0
2018-Apr-08 00:58S 33°02' W 071°38'0 0.0
2018-Apr-08 00:28S 33°02' W 071°38'0 0.0
2018-Apr-07 23:58S 33°02' W 071°38'0 0.0
2018-Apr-07 23:28S 33°02' W 071°38'0 0.0
2018-Apr-07 21:10S 33°02' W 071°38'0 0.0
2018-Apr-07 20:55S 33°02' W 071°38'0 0.0
2018-Apr-07 20:28S 33°02' W 071°38'0 0.0
2018-Apr-07 19:52S 33°02' W 071°38'0 0.0
2018-Apr-07 19:28S 33°02' W 071°38'0 0.0
2018-Apr-07 18:58S 33°02' W 071°38'0 0.0
2018-Apr-07 18:28S 33°02' W 071°38'0 0.0
2018-Apr-07 17:55S 33°02' W 071°38'0 0.0
2018-Apr-07 17:28S 33°02' W 071°38'0 0.0
2018-Apr-07 16:58S 33°02' W 071°38'0 0.0
2018-Apr-07 16:28S 33°02' W 071°38'0 0.0
2018-Apr-07 15:58S 33°02' W 071°38'0 0.0
2018-Apr-07 14:43S 33°02' W 071°38'6 1.0
2018-Apr-07 09:08S 32°57' W 071°38'1 8.6
2018-Apr-07 08:59S 32°55' W 071°39'4 8.7
2018-Apr-07 08:29S 32°51' W 071°40'5 9.9
2018-Apr-07 07:59S 32°46' W 071°41'  

Dump ship's entire track history